createdAt,value
2022-08-12T00:00:49.776Z,16.00
2022-08-12T00:04:31.805Z,16.34
2022-08-12T00:08:14.797Z,16.43
2022-08-12T00:11:59.796Z,15.95
2022-08-12T00:15:42.887Z,16.70
2022-08-12T00:19:25.789Z,16.38
2022-08-12T00:23:06.793Z,16.48
2022-08-12T00:26:50.789Z,16.74
2022-08-12T00:30:32.834Z,16.94
2022-08-12T00:34:14.805Z,16.86
2022-08-12T00:38:00.841Z,17.24
2022-08-12T00:41:45.792Z,17.27
2022-08-12T00:45:09.820Z,17.10
2022-08-12T00:48:33.784Z,17.29
2022-08-12T00:52:19.828Z,16.49
2022-08-12T00:55:43.776Z,16.60
2022-08-12T00:59:08.840Z,17.02
2022-08-12T01:02:41.973Z,16.19
2022-08-12T01:06:26.833Z,16.61
2022-08-12T01:10:08.813Z,16.78
2022-08-12T01:13:33.814Z,16.17
2022-08-12T01:16:58.851Z,17.87
2022-08-12T01:20:23.827Z,17.20
2022-08-12T01:24:22.988Z,17.23
2022-08-12T01:27:57.822Z,17.14
2022-08-12T01:31:22.813Z,17.33
2022-08-12T01:34:48.838Z,17.47
2022-08-12T01:38:21.807Z,17.87
2022-08-12T01:41:58.845Z,18.24
2022-08-12T01:45:25.801Z,17.15
2022-08-12T01:49:14.867Z,17.85
2022-08-12T01:53:08.804Z,17.76
2022-08-12T01:56:32.849Z,17.83
2022-08-12T02:00:14.801Z,17.69
2022-08-12T02:04:08.865Z,18.09
2022-08-12T02:08:07.986Z,17.98
2022-08-12T02:11:48.831Z,17.61
2022-08-12T02:15:33.869Z,18.03
2022-08-12T02:19:03.835Z,17.56
2022-08-12T02:22:51.855Z,17.49
2022-08-12T02:26:20.802Z,18.49
2022-08-12T02:29:44.877Z,18.51
2022-08-12T02:33:09.822Z,18.08
2022-08-12T02:36:32.860Z,17.91
2022-08-12T02:40:04.827Z,17.97
2022-08-12T02:43:52.859Z,17.84
2022-08-12T02:48:00.148Z,17.97
2022-08-12T02:51:09.871Z,17.89
2022-08-12T02:54:33.852Z,18.17
2022-08-12T02:57:57.870Z,17.32
2022-08-12T03:01:25.075Z,17.71
2022-08-12T03:04:53.975Z,17.67
2022-08-12T03:08:31.608Z,16.96
2022-08-12T03:12:20.169Z,17.40
2022-08-12T03:15:44.848Z,17.04
2022-08-12T03:19:10.868Z,17.34
2022-08-12T03:22:35.845Z,17.20
2022-08-12T03:25:59.915Z,16.75
2022-08-12T03:29:24.876Z,16.87
2022-08-12T03:32:50.263Z,17.17
2022-08-12T03:36:16.867Z,16.93
2022-08-12T03:39:47.963Z,16.90
2022-08-12T03:43:32.858Z,16.95
2022-08-12T03:47:20.905Z,16.45
2022-08-12T03:51:03.865Z,16.23
2022-08-12T03:54:46.892Z,15.87
2022-08-12T03:58:31.871Z,15.65
2022-08-12T04:02:00.886Z,15.76
2022-08-12T04:05:50.781Z,15.71
2022-08-12T04:09:14.763Z,15.38
2022-08-12T04:13:01.004Z,15.62
2022-08-12T04:16:25.865Z,15.19
2022-08-12T04:19:56.019Z,15.34
2022-08-12T04:23:20.871Z,15.24
2022-08-12T04:26:44.929Z,15.12
2022-08-12T04:30:31.656Z,15.20
2022-08-12T04:33:52.895Z,14.79
2022-08-12T04:37:16.867Z,14.76
2022-08-12T04:40:46.898Z,14.77
2022-08-12T04:44:10.907Z,14.81
2022-08-12T04:47:34.902Z,14.42
2022-08-12T04:51:00.908Z,14.38
2022-08-12T04:54:24.917Z,14.12
2022-08-12T04:57:49.923Z,14.05
2022-08-12T05:01:15.035Z,13.92
2022-08-12T05:04:38.903Z,13.69
2022-08-12T05:08:02.921Z,13.41
2022-08-12T05:11:26.923Z,13.09
2022-08-12T05:14:50.936Z,13.00
2022-08-12T05:18:19.691Z,12.79
2022-08-12T05:21:44.931Z,12.66
2022-08-12T05:25:09.906Z,12.62
2022-08-12T05:28:35.016Z,12.60
2022-08-12T05:32:03.898Z,12.36
2022-08-12T05:35:27.976Z,12.28
2022-08-12T05:39:04.922Z,12.03
2022-08-12T05:42:34.508Z,11.60
2022-08-12T05:45:58.905Z,11.81
2022-08-12T05:49:23.944Z,11.75
2022-08-12T05:52:48.303Z,11.59
2022-08-12T05:56:12.999Z,11.31
2022-08-12T05:59:37.899Z,11.17
2022-08-12T06:03:05.032Z,11.18
2022-08-12T06:06:31.692Z,11.12
2022-08-12T06:09:55.958Z,11.06
2022-08-12T06:13:28.260Z,10.99
2022-08-12T06:17:01.361Z,10.98
2022-08-12T06:20:29.378Z,10.96
2022-08-12T06:23:52.950Z,10.90
2022-08-12T06:27:17.924Z,10.88
2022-08-12T06:30:42.927Z,10.92
2022-08-12T06:35:26.142Z,10.83
2022-08-12T06:37:57.936Z,10.75
2022-08-12T06:41:40.947Z,10.56
2022-08-12T06:45:25.959Z,10.52
2022-08-12T06:49:10.948Z,10.45
2022-08-12T06:52:36.031Z,10.54
2022-08-12T06:56:02.931Z,10.45
2022-08-12T06:59:28.954Z,10.33
2022-08-12T07:02:51.946Z,10.42
2022-08-12T07:06:21.944Z,10.40
2022-08-12T07:10:01.227Z,10.36
2022-08-12T07:13:27.965Z,10.52
2022-08-12T07:17:01.939Z,10.42
2022-08-12T07:20:51.264Z,10.33
2022-08-12T07:24:09.932Z,10.32
2022-08-12T07:27:33.992Z,10.27
2022-08-12T07:30:57.939Z,10.48
2022-08-12T07:34:22.984Z,10.53
2022-08-12T07:37:45.941Z,10.48
2022-08-12T07:41:20.978Z,10.47
2022-08-12T07:44:43.984Z,10.46
2022-08-12T07:48:07.986Z,10.47
2022-08-12T07:51:31.957Z,10.47
2022-08-12T07:54:55.987Z,10.42
2022-08-12T07:58:18.987Z,10.26
2022-08-12T08:01:42.023Z,10.34
2022-08-12T08:05:04.939Z,10.27
2022-08-12T08:08:29.977Z,10.23
2022-08-12T08:12:19.159Z,10.26
2022-08-12T08:16:02.366Z,10.16
2022-08-12T08:19:26.979Z,10.10
2022-08-12T08:22:47.064Z,10.09
2022-08-12T08:26:09.987Z,10.14
2022-08-12T08:29:34.943Z,9.98
2022-08-12T08:32:59.010Z,9.90
2022-08-12T08:36:25.967Z,9.99
2022-08-12T08:39:51.071Z,10.02
2022-08-12T08:43:14.983Z,9.96
2022-08-12T08:46:38.313Z,9.96
2022-08-12T08:49:55.978Z,10.04
2022-08-12T08:53:19.971Z,9.98
2022-08-12T08:56:54.033Z,10.08
2022-08-12T09:00:15.418Z,10.03
2022-08-12T09:05:09.841Z,9.89
2022-08-12T09:07:51.287Z,9.92
2022-08-12T09:11:05.982Z,9.78
2022-08-12T09:14:33.088Z,9.60
2022-08-12T09:18:14.992Z,9.54
2022-08-12T09:21:55.023Z,9.43
2022-08-12T09:25:25.735Z,9.41
2022-08-12T09:28:50.160Z,9.39
2022-08-12T09:32:55.681Z,9.35
2022-08-12T09:36:04.984Z,9.18
2022-08-12T09:40:05.757Z,9.12
2022-08-12T09:43:30.998Z,9.04
2022-08-12T09:46:55.042Z,9.13
2022-08-12T09:50:20.308Z,9.12
2022-08-12T09:53:45.751Z,9.06
2022-08-12T09:58:07.541Z,8.81
2022-08-12T10:01:23.286Z,8.85
2022-08-12T10:04:57.031Z,8.66
2022-08-12T10:08:20.977Z,8.69
2022-08-12T10:12:10.326Z,8.54
2022-08-12T10:16:01.481Z,8.40
2022-08-12T10:19:23.115Z,8.72
2022-08-12T10:23:07.127Z,8.61
2022-08-12T10:26:49.015Z,8.77
2022-08-12T10:30:42.182Z,8.64
2022-08-12T10:34:05.232Z,8.79
2022-08-12T10:38:32.360Z,8.49
2022-08-12T10:41:58.377Z,8.73
2022-08-12T10:45:20.990Z,8.90
2022-08-12T10:48:58.001Z,9.17
2022-08-12T10:52:34.239Z,9.28
2022-08-12T10:56:03.043Z,9.42
2022-08-12T11:00:31.019Z,9.50
2022-08-12T11:04:28.012Z,9.41
2022-08-12T11:08:33.668Z,9.43
2022-08-12T11:10:45.668Z,9.48
2022-08-12T11:14:48.484Z,9.44
2022-08-12T11:17:54.969Z,9.34
2022-08-12T11:21:20.016Z,9.28
2022-08-12T11:24:51.179Z,9.14
2022-08-12T11:28:16.194Z,9.00
2022-08-12T11:31:41.044Z,8.93
2022-08-12T11:35:21.036Z,8.87
2022-08-12T11:38:50.806Z,8.91
2022-08-12T11:42:14.989Z,8.98
2022-08-12T11:45:38.905Z,8.79
2022-08-12T11:49:03.018Z,8.64
2022-08-12T11:52:51.375Z,8.52
2022-08-12T11:56:11.397Z,8.58
2022-08-12T12:03:43.966Z,8.51
2022-08-12T12:07:11.139Z,8.56
2022-08-12T12:10:35.990Z,8.61
2022-08-12T12:14:08.368Z,8.67
2022-08-12T12:17:38.292Z,8.65
2022-08-12T12:21:04.021Z,8.66
2022-08-12T12:24:27.041Z,8.70
2022-08-12T12:28:07.057Z,8.82
2022-08-12T12:32:10.988Z,8.72
2022-08-12T12:36:06.547Z,8.67
2022-08-12T12:38:57.021Z,8.89
2022-08-12T12:42:45.366Z,8.80
2022-08-12T12:46:03.059Z,8.92
2022-08-12T12:49:27.496Z,8.93
2022-08-12T12:52:53.035Z,8.79
2022-08-12T12:56:20.043Z,8.94
2022-08-12T13:00:17.047Z,8.92
2022-08-12T13:03:49.331Z,8.94
2022-08-12T13:07:14.059Z,9.06
2022-08-12T13:10:37.334Z,9.01
2022-08-12T13:14:28.816Z,9.04
2022-08-12T13:18:03.273Z,8.98
2022-08-12T13:21:33.208Z,8.95
2022-08-12T13:25:09.143Z,8.67
2022-08-12T13:28:33.634Z,8.50
2022-08-12T13:32:18.851Z,8.32
2022-08-12T13:36:05.740Z,8.33
2022-08-12T13:39:18.134Z,8.24
2022-08-12T13:42:42.266Z,8.13
2022-08-12T13:46:09.087Z,8.00
2022-08-12T13:49:53.733Z,8.11
2022-08-12T13:53:24.173Z,7.89
2022-08-12T13:56:51.418Z,7.75
2022-08-12T14:00:18.098Z,7.65
2022-08-12T14:03:50.100Z,7.53
2022-08-12T14:07:16.085Z,7.26
2022-08-12T14:10:51.038Z,7.10
2022-08-12T14:14:14.111Z,7.18
2022-08-12T14:17:39.075Z,7.18
2022-08-12T14:21:10.092Z,6.92
2022-08-12T14:24:45.084Z,6.90
2022-08-12T14:28:08.129Z,6.72
2022-08-12T14:31:31.947Z,6.74
2022-08-12T14:34:52.096Z,6.63
2022-08-12T14:38:15.072Z,6.51
2022-08-12T14:41:48.304Z,6.23
2022-08-12T14:45:15.079Z,6.30
2022-08-12T14:48:38.096Z,6.23
2022-08-12T14:53:13.467Z,6.30
2022-08-12T14:59:58.376Z,6.27
2022-08-12T15:03:25.120Z,6.01
2022-08-12T15:07:10.108Z,6.19
2022-08-12T15:10:57.128Z,5.89
2022-08-12T15:14:21.210Z,5.81
2022-08-12T15:17:45.102Z,5.75
2022-08-12T15:21:11.574Z,5.43
2022-08-12T15:24:35.103Z,5.46
2022-08-12T15:28:04.631Z,5.46
2022-08-12T15:32:00.968Z,5.51
2022-08-12T15:35:20.185Z,5.38
2022-08-12T15:38:43.082Z,5.30
2022-08-12T15:42:07.169Z,5.09
2022-08-12T15:45:24.125Z,5.12
2022-08-12T15:48:51.105Z,5.09
2022-08-12T15:52:26.175Z,5.04
2022-08-12T15:55:46.223Z,4.85
2022-08-12T15:59:11.122Z,4.84
2022-08-12T16:02:38.126Z,4.95
2022-08-12T16:06:12.714Z,4.84
2022-08-12T16:09:45.400Z,4.73
2022-08-12T16:13:32.459Z,4.73
2022-08-12T16:16:59.143Z,4.68
2022-08-12T16:20:33.715Z,4.66
2022-08-12T16:23:58.207Z,4.65
2022-08-12T16:27:22.167Z,4.58
2022-08-12T16:30:49.984Z,4.47
2022-08-12T16:34:26.159Z,4.56
2022-08-12T16:38:24.220Z,4.50
2022-08-12T16:41:42.114Z,4.58
2022-08-12T16:45:10.133Z,4.43
2022-08-12T16:48:37.114Z,4.22
2022-08-12T16:52:01.153Z,4.34
2022-08-12T16:55:24.105Z,4.52
2022-08-12T16:58:48.145Z,4.71
2022-08-12T17:02:13.124Z,4.95
2022-08-12T17:06:02.118Z,4.95
2022-08-12T17:09:27.098Z,4.99
2022-08-12T17:13:10.277Z,5.04
2022-08-12T17:16:35.127Z,5.09
2022-08-12T17:20:34.863Z,5.25
2022-08-12T17:23:53.538Z,5.22
2022-08-12T17:27:18.159Z,5.09
2022-08-12T17:30:43.269Z,5.04
2022-08-12T17:34:17.713Z,5.18
2022-08-12T17:37:36.714Z,5.38
2022-08-12T17:40:55.181Z,5.32
2022-08-12T17:44:19.103Z,5.45
2022-08-12T17:47:44.149Z,5.43
2022-08-12T17:51:10.104Z,5.46
2022-08-12T17:54:39.143Z,5.74
2022-08-12T17:58:05.128Z,5.85
2022-08-12T18:01:28.945Z,5.82
2022-08-12T18:05:09.645Z,5.85
2022-08-12T18:08:37.126Z,5.84
2022-08-12T18:12:24.465Z,5.84
2022-08-12T18:16:05.887Z,5.92
2022-08-12T18:20:03.830Z,6.08
2022-08-12T18:23:14.151Z,6.00
2022-08-12T18:26:38.169Z,6.06
2022-08-12T18:30:04.691Z,6.02
2022-08-12T18:33:32.155Z,6.04
2022-08-12T18:37:11.748Z,5.74
2022-08-12T18:41:21.161Z,5.78
2022-08-12T18:44:47.168Z,5.61
2022-08-12T18:48:13.160Z,5.59
2022-08-12T18:51:48.905Z,5.64
2022-08-12T18:55:14.253Z,5.67
2022-08-12T18:58:41.156Z,5.64
2022-08-12T19:02:24.288Z,5.91
2022-08-12T19:05:54.121Z,5.84
2022-08-12T19:09:23.185Z,5.95
2022-08-12T19:13:24.032Z,5.90
2022-08-12T19:16:52.200Z,6.00
2022-08-12T19:20:17.181Z,6.03
2022-08-12T19:23:44.194Z,5.96
2022-08-12T19:27:08.477Z,6.17
2022-08-12T19:31:03.152Z,6.01
2022-08-12T19:35:07.019Z,5.97
2022-08-12T19:38:12.146Z,6.06
2022-08-12T19:42:01.397Z,6.13
2022-08-12T19:45:42.039Z,6.31
2022-08-12T19:49:07.205Z,7.47
2022-08-12T19:52:33.207Z,8.08
2022-08-12T19:55:56.162Z,7.07
2022-08-12T19:59:43.444Z,6.85
2022-08-12T20:03:38.665Z,6.85
2022-08-12T20:07:04.140Z,6.89
2022-08-12T20:10:35.271Z,6.95
2022-08-12T20:14:03.138Z,6.94
2022-08-12T20:17:36.210Z,6.99
2022-08-12T20:21:01.141Z,7.10
2022-08-12T20:24:34.182Z,7.32
2022-08-12T20:28:03.631Z,7.68
2022-08-12T20:31:31.560Z,9.72
2022-08-12T20:34:57.168Z,10.67
2022-08-12T20:38:27.267Z,10.00
2022-08-12T20:41:52.179Z,10.24
2022-08-12T20:45:16.209Z,9.13
2022-08-12T20:48:43.188Z,9.04
2022-08-12T20:52:08.213Z,8.87
2022-08-12T20:55:43.126Z,8.81
2022-08-12T20:59:09.194Z,8.81
2022-08-12T21:02:36.239Z,8.76
2022-08-12T21:06:18.204Z,8.78
2022-08-12T21:09:55.176Z,9.15
2022-08-12T21:13:21.194Z,9.43
2022-08-12T21:16:44.184Z,9.58
2022-08-12T21:20:22.420Z,9.75
2022-08-12T21:23:47.172Z,9.10
2022-08-12T21:27:12.229Z,9.93
2022-08-12T21:30:42.173Z,9.96
2022-08-12T21:34:29.362Z,10.29
2022-08-12T21:37:56.163Z,10.74
2022-08-12T21:41:20.228Z,11.17
2022-08-12T21:45:46.020Z,11.48
2022-08-12T21:48:33.234Z,12.18
2022-08-12T21:51:58.203Z,12.31
2022-08-12T21:55:24.189Z,12.24
2022-08-12T21:58:52.221Z,12.64
2022-08-12T22:02:36.236Z,12.69
2022-08-12T22:06:20.289Z,12.51
2022-08-12T22:09:57.257Z,12.67
2022-08-12T22:14:04.261Z,12.30
2022-08-12T22:17:07.185Z,12.78
2022-08-12T22:20:37.228Z,12.69
2022-08-12T22:24:05.450Z,12.48
2022-08-12T22:27:32.160Z,12.35
2022-08-12T22:31:15.451Z,12.96
2022-08-12T22:34:39.232Z,13.22
2022-08-12T22:38:03.134Z,13.86
2022-08-12T22:41:47.208Z,13.33
2022-08-12T22:45:56.174Z,13.88
2022-08-12T22:49:22.282Z,14.97
2022-08-12T22:52:50.184Z,15.22
2022-08-12T22:56:17.180Z,15.48
2022-08-12T22:59:55.453Z,15.39
2022-08-12T23:03:49.192Z,14.25
2022-08-12T23:07:09.198Z,15.64
2022-08-12T23:10:36.172Z,15.00
2022-08-12T23:14:03.493Z,15.83
2022-08-12T23:17:40.001Z,16.26
2022-08-12T23:21:05.180Z,16.35
2022-08-12T23:24:38.377Z,16.81
2022-08-12T23:28:29.220Z,16.07
2022-08-12T23:32:02.656Z,17.79
2022-08-12T23:35:45.498Z,17.42
2022-08-12T23:40:14.084Z,17.85
2022-08-12T23:42:56.197Z,18.02
2022-08-12T23:46:21.239Z,18.00
2022-08-12T23:49:57.296Z,17.45
2022-08-12T23:53:25.262Z,17.62
2022-08-12T23:56:57.243Z,18.07
